logo
Rechercher aéroport 
image banner adimage banner adimage banner ad
image banner ad

SKRA - Tarapaca

Situé à , Colombia

ICAO - , IATA - TCD

Données fournies par Airmate  

Information générale

Coordonnées: S2°53'45" W69°44'59"
Élévation : 252 feet MSL.
Variation magnétique : -10° East
Voir autres Aéroports à Amazonas

Données opérationnelles

Special qualification required
Heure actuelle UTC:
Heure actuelle locale:
Météo à : - ( 0 km )
METAR: KSHV 241956Z 36005KT 10SM SCT030 BKN040 BKN080 26/19 A3010 RMK SLPNO
Voir NOTAMs / SUP AIP / TFR affectant cet aéroport [VIEW]
Fréquences de communication: [VIEW]

Pistes:

Identifiant RWYQFULongueur (ft)Largeur (ft)SurfaceLDA (ft)
26248°348843ASPH
0868°348843ASPH

Coordonnées de l'aéroport

Adresse: Colombia

Vue satellite de SKRA